カーナーク/チューレ空軍基地 の空港の天気 - METARとTAF

チューレ空軍基地 ( BGTL / THU ) - グリーンランド カーナーク
飛行場実況気象(Metar)
観測時間10/16 04:56 ADT (10/16 07:56 UTC)
風向・風速南南西 6m/s
視程10km以上
天気現象
少しの雲 雲底高度 1100m
全天の8割程度の雲 雲底高度 1490m
全天を覆う雲 雲底高度 1680m
気温-3.8℃
湿度92%
気圧1012.1hPa
METARBGTL 160756Z AUTO 20011KT 9999 FEW036 BKN049 OVC055 M04/M05 A2993 RMK AO2 SLP121 T10381049 TSNO $
過去の天気等 Google飛行場航空写真 Wunderground天気予報

過去48時間のMETAR

飛行場予報(TAF)
データがありません